Aviation Digital Data Service (ADDS)

Output produced by METARs form (0848 UTC 09 April 2020)
found at http://aviationweather.gov/metar/data/
 
METAR text: EDDK 090820Z 15003KT 120V190 CAVOK 16/05 Q1024 NOSIG
Conditions at: EDDK (KOELN/BONN , DE) observed 0820 UTC 09 April 2020
Temperature: 16.0°C (61°F)
Dewpoint: 5.0°C (41°F) [RH = 48%]
Pressure (altimeter): 30.24 inches Hg (1024.0 mb)
Winds: from the SSE (150 degrees) at 3 MPH (3 knots; 1.5 m/s)
Visibility: 6 or more miles (10+ km)
Ceiling: ceiling and visibility are OK
Clouds: unknown
Weather: no significant weather observed at this time

METAR text: EDDK 090750Z VRB03KT CAVOK 15/05 Q1024 NOSIG
Conditions at: EDDK (KOELN/BONN , DE) observed 0750 UTC 09 April 2020
Temperature: 15.0°C (59°F)
Dewpoint: 5.0°C (41°F) [RH = 51%]
Pressure (altimeter): 30.24 inches Hg (1024.0 mb)
Winds: variable direction winds at 3 MPH (3 knots; 1.5 m/s)
Visibility: 6 or more miles (10+ km)
Ceiling: ceiling and visibility are OK
Clouds: unknown
Weather: no significant weather observed at this time

Forecast for: EDDK (KOELN/BONN , DE)
Text: TAF EDDK 090500Z 0906/1012 VRB03KT CAVOK
Forecast period: 0600 to 1000 UTC 09 April 2020
Forecast type: FROM: standard forecast or significant change
Winds: variable direction winds at 3 MPH (3 knots; 1.5 m/s)
Visibility: 6 or more miles 10+ km)
Ceiling: unknown
Clouds: missing
Weather: NSW  (no significant weather)
Text: BECMG 0910/0912 34008KT
Forecast period: 1000 to 1800 UTC 09 April 2020
Forecast type: BECOMING: Conditions expected to become as follows by 1200 UTC 09 April 2020
Winds: from the NNW (340 degrees) at 9 MPH (8 knots; 4.1 m/s)
Visibility: 6 or more miles 10+ km)
Ceiling: unknown
Clouds: missing
Weather: NSW  (no significant weather)
Text: BECMG 0918/0920 06004KT
Forecast period: 1800 UTC 09 April 2020 to 1200 UTC 10 April 2020
Forecast type: BECOMING: Conditions expected to become as follows by 2000 UTC 09 April 2020
Winds: from the ENE (60 degrees) at 5 MPH (4 knots; 2.1 m/s)
Visibility: 6 or more miles 10+ km)
Ceiling: unknown
Clouds: missing
Weather: NSW  (no significant weather)